Time;durP1;ratioP1;P1;durP2;ratioP2;P2;SDS_P1;SDS_P2;PMS_P1;PMS_P2;Temp;Humidity;BMP_temperature;BMP_pressure;BME280_temperature;BME280_humidity;BME280_pressure;Samples;Min_cycle;Max_cycle;Signal;HPM_P1;HPM_P2
2023/10/24 00:01:46;;;;;;;10.18;1.15;;;28.70;40.50;;;;;;5048317;28;20061;-56
2023/10/24 00:04:13;;;;;;;4.47;1.23;;;28.70;40.70;;;;;;5048839;28;20473;-52
2023/10/24 00:06:39;;;;;;;7.63;1.50;;;28.60;40.60;;;;;;5047007;28;20143;-55
2023/10/24 00:09:06;;;;;;;2.40;1.10;;;28.60;41.30;;;;;;5050035;28;20061;-54
2023/10/24 00:11:33;;;;;;;3.45;1.10;;;28.70;41.10;;;;;;5050019;28;20088;-55
2023/10/24 00:14:00;;;;;;;4.05;1.00;;;28.70;40.90;;;;;;5048983;28;20068;-57
2023/10/24 00:16:27;;;;;;;9.80;0.90;;;28.60;40.60;;;;;;5048570;28;20080;-54
2023/10/24 00:18:53;;;;;;;7.43;1.42;;;28.50;40.70;;;;;;5047502;28;20115;-56
2023/10/24 00:21:20;;;;;;;5.10;1.85;;;28.50;40.90;;;;;;5049354;28;20434;-56
2023/10/24 00:23:46;;;;;;;13.10;4.85;;;28.40;40.60;;;;;;5048970;28;20062;-55
2023/10/24 00:26:13;;;;;;;5.68;1.60;;;28.40;40.80;;;;;;5048653;28;20079;-56
2023/10/24 00:28:39;;;;;;;8.63;1.95;;;28.30;41.30;;;;;;5060171;28;20061;-55
2023/10/24 00:31:07;;;;;;;9.23;1.83;;;28.30;41.90;;;;;;5057265;28;20066;-58
2023/10/24 00:33:42;;;;;;;6.47;1.63;;;28.20;42.40;;;;;;5048090;28;20225;-54
2023/10/24 00:36:08;;;;;;;8.25;1.80;;;28.00;42.40;;;;;;5043296;28;20072;-56
2023/10/24 00:38:35;;;;;;;7.70;1.65;;;28.00;42.70;;;;;;5047463;28;20114;-59
2023/10/24 00:41:04;;;;;;;7.63;2.20;;;27.90;42.90;;;;;;5049389;28;20114;-57
2023/10/24 00:43:30;;;;;;;7.63;2.22;;;27.80;42.90;;;;;;5046877;28;20453;-55
2023/10/24 00:45:57;;;;;;;5.90;1.90;;;27.70;43.10;;;;;;5046158;28;20078;-55
2023/10/24 00:48:23;;;;;;;8.73;1.88;;;27.70;43.20;;;;;;5049152;28;20077;-53
2023/10/24 00:50:50;;;;;;;7.25;2.00;;;27.60;43.30;;;;;;5047757;28;20071;-53
2023/10/24 00:53:18;;;;;;;9.48;1.83;;;27.60;43.40;;;;;;5046946;28;20109;-56
2023/10/24 00:55:44;;;;;;;11.50;2.35;;;27.50;43.40;;;;;;5047072;28;20148;-56
2023/10/24 00:58:12;;;;;;;6.30;2.10;;;27.50;43.50;;;;;;5047336;28;20076;-55
2023/10/24 01:00:42;;;;;;;10.75;2.10;;;27.50;43.40;;;;;;5057284;28;20130;-56
2023/10/24 01:03:09;;;;;;;8.20;2.72;;;27.40;43.60;;;;;;5068994;28;20445;-56
2023/10/24 01:05:36;;;;;;;4.55;1.83;;;27.40;43.70;;;;;;5049605;28;20086;-56
2023/10/24 01:08:03;;;;;;;6.25;2.17;;;27.30;43.50;;;;;;5047650;28;20096;-57
2023/10/24 01:10:29;;;;;;;11.30;2.50;;;27.20;43.70;;;;;;5048180;28;20067;-55
2023/10/24 01:12:56;;;;;;;16.80;2.67;;;27.10;43.90;;;;;;5048132;28;20551;-54
2023/10/24 01:15:22;;;;;;;9.48;2.38;;;27.20;43.90;;;;;;5047454;28;20417;-55
2023/10/24 01:17:53;;;;;;;8.82;2.47;;;27.10;43.80;;;;;;5047247;28;20556;-54
2023/10/24 01:20:19;;;;;;;15.10;2.90;;;27.10;43.80;;;;;;5046448;28;20077;-55
2023/10/24 01:22:46;;;;;;;16.45;2.72;;;27.00;44.00;;;;;;5048370;28;20089;-55
2023/10/24 01:25:14;;;;;;;12.05;2.60;;;27.00;43.80;;;;;;5048221;28;20086;-56
2023/10/24 01:27:43;;;;;;;11.63;2.55;;;27.00;43.90;;;;;;5047011;28;20555;-57
2023/10/24 01:30:12;;;;;;;9.70;2.13;;;26.90;43.90;;;;;;5047211;28;20105;-54
2023/10/24 01:32:39;;;;;;;8.30;2.30;;;26.80;44.00;;;;;;5045532;28;20150;-55
2023/10/24 01:35:06;;;;;;;13.50;2.83;;;26.80;44.30;;;;;;5046123;28;20544;-51
2023/10/24 01:37:33;;;;;;;6.03;2.13;;;26.70;44.30;;;;;;5050168;28;20083;-55
2023/10/24 01:39:59;;;;;;;11.43;2.60;;;26.70;44.50;;;;;;5064239;28;20103;-54
2023/10/24 01:42:26;;;;;;;11.25;2.38;;;26.60;44.50;;;;;;5048076;28;20128;-55
2023/10/24 01:44:52;;;;;;;9.38;2.78;;;26.60;44.70;;;;;;5046759;28;20076;-54
2023/10/24 01:47:19;;;;;;;14.57;2.92;;;26.50;44.90;;;;;;5046924;28;20196;-56
2023/10/24 01:49:45;;;;;;;9.10;2.38;;;26.50;45.80;;;;;;5056011;28;20575;-52
2023/10/24 01:52:12;;;;;;;15.43;3.33;;;26.40;45.70;;;;;;5055636;28;20130;-55
2023/10/24 01:54:38;;;;;;;8.32;2.60;;;26.40;45.80;;;;;;5046376;28;20071;-54
2023/10/24 01:57:05;;;;;;;14.13;2.67;;;26.40;46.30;;;;;;5047967;28;20074;-57
2023/10/24 01:59:31;;;;;;;9.68;2.78;;;26.30;46.60;;;;;;5047441;28;20107;-56
2023/10/24 02:01:58;;;;;;;17.85;2.80;;;26.20;46.90;;;;;;5047787;28;20450;-55
2023/10/24 02:04:24;;;;;;;17.17;2.50;;;26.20;47.20;;;;;;5047188;28;20518;-56
2023/10/24 02:06:50;;;;;;;11.57;2.30;;;26.20;47.70;;;;;;5042768;28;20093;-55
2023/10/24 02:09:17;;;;;;;11.85;2.50;;;26.10;47.90;;;;;;5046080;28;20084;-55
2023/10/24 02:11:43;;;;;;;9.75;2.58;;;26.00;48.20;;;;;;5046270;28;20090;-56
2023/10/24 02:14:10;;;;;;;12.50;2.78;;;26.00;48.40;;;;;;5047377;28;20078;-56
2023/10/24 02:16:36;;;;;;;8.02;2.85;;;26.00;48.50;;;;;;5046071;28;20166;-59
2023/10/24 02:19:03;;;;;;;13.43;3.58;;;25.90;48.70;;;;;;5047213;28;20077;-57
2023/10/24 02:21:29;;;;;;;11.45;3.17;;;25.90;48.80;;;;;;5063204;28;20072;-56
2023/10/24 02:23:56;;;;;;;18.15;3.38;;;25.90;49.00;;;;;;5049140;28;20110;-57
2023/10/24 02:26:22;;;;;;;10.10;2.92;;;25.80;49.00;;;;;;5047684;28;20086;-58
2023/10/24 02:28:49;;;;;;;10.80;2.88;;;25.70;49.10;;;;;;5047172;28;20069;-54
2023/10/24 02:31:15;;;;;;;10.35;2.90;;;25.70;49.30;;;;;;5047421;28;20086;-56
2023/10/24 02:33:41;;;;;;;13.18;3.63;;;25.70;49.70;;;;;;5046850;28;20080;-58
2023/10/24 02:36:09;;;;;;;14.15;3.80;;;25.60;49.60;;;;;;5047085;28;20075;-59
2023/10/24 02:38:51;;;;;;;12.93;2.97;;;25.60;49.80;;;;;;5013987;28;20113;-56
2023/10/24 02:41:18;;;;;;;11.57;3.20;;;25.50;49.90;;;;;;5048085;28;20597;-56
2023/10/24 02:43:44;;;;;;;14.57;3.67;;;25.50;50.00;;;;;;5048037;28;20083;-58
2023/10/24 02:46:11;;;;;;;17.75;3.65;;;25.40;50.10;;;;;;5047172;28;20164;-56
2023/10/24 02:48:37;;;;;;;10.05;3.13;;;25.40;50.20;;;;;;5046139;28;20509;-56
2023/10/24 02:51:04;;;;;;;16.63;3.58;;;25.40;50.30;;;;;;5056146;28;20423;-56
2023/10/24 02:53:30;;;;;;;14.95;3.13;;;25.30;50.40;;;;;;5047182;28;20496;-57
2023/10/24 02:56:02;;;;;;;15.43;3.53;;;25.30;50.70;;;;;;5046617;28;20082;-56
2023/10/24 02:58:29;;;;;;;11.52;3.65;;;25.20;50.70;;;;;;5046867;28;20083;-55
2023/10/24 03:00:55;;;;;;;21.25;3.58;;;25.20;50.90;;;;;;5046989;28;20500;-57
2023/10/24 03:03:22;;;;;;;23.60;3.50;;;25.10;51.60;;;;;;5046642;28;20562;-59
2023/10/24 03:05:48;;;;;;;14.48;3.65;;;25.10;51.20;;;;;;5047118;28;20165;-56
2023/10/24 03:08:15;;;;;;;11.68;3.75;;;25.10;51.40;;;;;;5047652;28;20153;-57
2023/10/24 03:10:41;;;;;;;15.00;3.83;;;25.00;52.10;;;;;;5047404;28;20521;-58
2023/10/24 03:13:08;;;;;;;13.10;4.10;;;25.00;51.60;;;;;;5046543;28;20080;-57
2023/10/24 03:15:35;;;;;;;17.67;4.32;;;24.90;52.00;;;;;;5047054;28;20082;-55
2023/10/24 03:18:02;;;;;;;17.38;3.78;;;24.90;52.20;;;;;;5045522;28;20120;-58
2023/10/24 03:20:29;;;;;;;18.45;4.72;;;24.80;52.40;;;;;;5046657;28;20613;-56
2023/10/24 03:22:56;;;;;;;15.20;4.43;;;24.80;52.50;;;;;;5045869;28;20087;-55
2023/10/24 03:25:24;;;;;;;13.80;4.18;;;24.70;52.70;;;;;;5046740;28;20166;-56
2023/10/24 03:27:54;;;;;;;11.65;4.10;;;24.70;52.80;;;;;;5045843;28;20178;-58
2023/10/24 03:30:23;;;;;;;16.50;4.28;;;24.70;52.90;;;;;;5046054;28;20075;-57
2023/10/24 03:32:50;;;;;;;12.15;3.72;;;24.60;53.00;;;;;;5045672;28;20513;-55
2023/10/24 03:35:17;;;;;;;11.88;3.67;;;24.50;53.20;;;;;;5048648;28;20083;-52
2023/10/24 03:37:43;;;;;;;13.10;4.03;;;24.50;53.40;;;;;;5046255;28;20124;-58
2023/10/24 03:40:10;;;;;;;9.98;3.30;;;24.50;53.60;;;;;;5047103;28;20171;-59
2023/10/24 03:42:37;;;;;;;16.65;3.72;;;24.40;53.60;;;;;;5050331;28;20107;-52
2023/10/24 03:45:04;;;;;;;12.88;4.03;;;24.40;53.80;;;;;;5049582;28;20083;-54
2023/10/24 03:47:31;;;;;;;8.80;3.83;;;24.30;53.90;;;;;;5049362;28;20098;-53
2023/10/24 03:49:57;;;;;;;10.25;3.80;;;24.30;54.00;;;;;;5049502;28;20083;-56
2023/10/24 03:52:24;;;;;;;14.27;4.30;;;24.20;54.10;;;;;;5049278;28;20079;-59
2023/10/24 03:54:50;;;;;;;13.73;4.63;;;24.20;54.20;;;;;;5047757;28;20086;-53
2023/10/24 03:57:17;;;;;;;17.90;4.53;;;24.10;54.40;;;;;;5049653;28;20423;-58
2023/10/24 03:59:43;;;;;;;14.57;3.50;;;24.10;54.60;;;;;;5050034;28;20085;-56
2023/10/24 04:02:09;;;;;;;13.15;4.93;;;24.10;54.80;;;;;;5052046;28;20508;-54
2023/10/24 04:04:36;;;;;;;12.50;4.18;;;24.00;54.90;;;;;;5049605;28;20079;-55
2023/10/24 04:07:04;;;;;;;11.63;3.83;;;24.00;55.10;;;;;;5047145;28;20173;-54
2023/10/24 04:09:31;;;;;;;12.23;4.20;;;24.00;55.20;;;;;;5049980;28;20554;-53
2023/10/24 04:11:58;;;;;;;12.23;4.22;;;23.90;55.30;;;;;;5048585;28;20095;-55
2023/10/24 04:14:24;;;;;;;12.90;4.88;;;23.80;55.60;;;;;;5049398;28;20075;-57
2023/10/24 04:16:51;;;;;;;13.50;4.53;;;23.80;55.80;;;;;;5048943;28;20444;-56
2023/10/24 04:19:17;;;;;;;16.42;5.38;;;23.80;55.90;;;;;;5049586;28;20547;-55
2023/10/24 04:21:45;;;;;;;18.30;6.57;;;23.70;56.00;;;;;;5049147;28;20072;-57
2023/10/24 04:24:11;;;;;;;11.55;4.78;;;23.60;56.20;;;;;;5048083;28;20079;-55
2023/10/24 04:26:38;;;;;;;17.40;4.47;;;23.60;56.50;;;;;;5054938;28;20090;-59
2023/10/24 04:29:04;;;;;;;15.50;4.50;;;23.60;56.70;;;;;;5058393;28;20125;-56
2023/10/24 04:31:31;;;;;;;12.80;4.28;;;23.60;56.80;;;;;;5047541;28;20080;-54
2023/10/24 04:33:57;;;;;;;7.97;3.22;;;23.50;56.90;;;;;;5046397;28;20075;-58
2023/10/24 04:36:24;;;;;;;10.07;3.30;;;23.50;57.10;;;;;;5045674;28;20148;-57
2023/10/24 04:38:50;;;;;;;15.27;3.97;;;23.40;57.20;;;;;;5048972;28;20109;-54
2023/10/24 04:41:17;;;;;;;14.55;3.65;;;23.40;57.30;;;;;;5047808;28;20084;-56
2023/10/24 04:43:43;;;;;;;14.32;4.70;;;23.40;57.40;;;;;;5048617;28;20127;-56
2023/10/24 04:46:10;;;;;;;19.90;4.25;;;23.30;57.40;;;;;;5049018;28;20156;-55
2023/10/24 04:48:36;;;;;;;15.15;3.95;;;23.20;57.60;;;;;;5047718;28;20090;-57
2023/10/24 04:51:10;;;;;;;12.07;4.18;;;23.20;57.70;;;;;;5046781;28;20107;-55
2023/10/24 04:53:37;;;;;;;13.68;3.95;;;23.20;57.70;;;;;;5048612;28;20076;-57
2023/10/24 04:56:04;;;;;;;14.13;4.82;;;23.20;57.60;;;;;;5048624;28;20080;-55
2023/10/24 04:58:30;;;;;;;11.65;4.47;;;23.20;57.60;;;;;;5049067;28;20134;-53
2023/10/24 05:00:57;;;;;;;10.82;3.90;;;23.20;57.60;;;;;;5067768;28;20171;-52
2023/10/24 05:03:23;;;;;;;13.98;4.20;;;23.20;57.70;;;;;;5052577;28;20134;-55
2023/10/24 05:05:50;;;;;;;16.17;4.88;;;23.20;57.70;;;;;;5047533;28;20160;-57
2023/10/24 05:08:16;;;;;;;15.60;4.30;;;23.20;57.90;;;;;;5046531;28;20114;-56
2023/10/24 05:10:43;;;;;;;18.85;5.40;;;23.20;57.90;;;;;;5049278;28;20067;-56
2023/10/24 05:13:09;;;;;;;13.32;5.00;;;23.20;57.90;;;;;;5046527;28;20080;-53
2023/10/24 05:15:35;;;;;;;15.35;4.43;;;23.10;57.90;;;;;;5048414;28;20078;-53
2023/10/24 05:18:02;;;;;;;12.48;4.45;;;23.10;57.90;;;;;;5048411;28;20447;-58
2023/10/24 05:20:28;;;;;;;11.85;4.40;;;23.10;57.90;;;;;;5048214;28;20083;-56
2023/10/24 05:22:55;;;;;;;13.07;4.47;;;23.00;57.80;;;;;;5048075;28;20539;-56
2023/10/24 05:25:21;;;;;;;19.48;5.40;;;23.00;58.10;;;;;;5044629;28;20148;-57
2023/10/24 05:27:48;;;;;;;13.65;6.03;;;23.10;58.10;;;;;;5046969;28;20574;-57
2023/10/24 05:30:14;;;;;;;18.98;5.78;;;23.10;58.00;;;;;;5047150;28;20087;-58
2023/10/24 05:32:41;;;;;;;16.33;5.72;;;23.00;58.00;;;;;;5047086;28;20559;-58
2023/10/24 05:35:07;;;;;;;16.80;5.70;;;23.00;58.00;;;;;;5046952;28;20435;-53
2023/10/24 05:37:34;;;;;;;11.90;4.03;;;23.00;58.10;;;;;;5046795;28;20092;-53
2023/10/24 05:40:01;;;;;;;11.07;3.65;;;23.00;58.10;;;;;;5046112;28;20118;-56
2023/10/24 05:42:27;;;;;;;13.85;3.90;;;23.00;58.20;;;;;;5045522;28;20149;-55
2023/10/24 05:44:54;;;;;;;11.98;3.78;;;22.90;58.30;;;;;;5047407;28;20086;-53
2023/10/24 05:47:20;;;;;;;13.77;4.05;;;22.90;58.50;;;;;;5045806;28;20099;-57
2023/10/24 05:49:46;;;;;;;10.93;3.85;;;22.90;58.40;;;;;;5049979;28;20088;-57
2023/10/24 05:52:13;;;;;;;13.02;3.78;;;22.80;58.40;;;;;;5046949;28;20094;-55
2023/10/24 05:54:39;;;;;;;10.40;3.60;;;22.80;58.40;;;;;;5047524;28;20076;-53
2023/10/24 05:57:06;;;;;;;9.27;3.38;;;22.80;58.50;;;;;;5047321;28;20544;-54
2023/10/24 05:59:33;;;;;;;8.68;2.80;;;22.80;58.50;;;;;;5046550;28;20083;-55
2023/10/24 06:02:00;;;;;;;10.80;2.92;;;22.80;58.50;;;;;;5046099;28;20159;-56
2023/10/24 06:04:27;;;;;;;11.45;3.20;;;22.80;58.50;;;;;;5051510;28;20083;-54
2023/10/24 06:06:54;;;;;;;11.05;3.10;;;22.80;58.70;;;;;;5044450;28;20452;-57
2023/10/24 06:09:20;;;;;;;10.40;3.10;;;22.70;58.80;;;;;;5044591;28;20436;-55
2023/10/24 06:11:47;;;;;;;9.05;2.80;;;22.70;58.90;;;;;;5046089;28;20073;-54
2023/10/24 06:14:13;;;;;;;9.88;2.88;;;22.70;59.00;;;;;;5047333;28;20079;-55
2023/10/24 06:16:40;;;;;;;9.25;2.75;;;22.70;59.10;;;;;;5046728;28;20563;-55
2023/10/24 06:19:06;;;;;;;8.75;2.95;;;22.70;59.10;;;;;;5046301;28;20459;-56
2023/10/24 06:21:33;;;;;;;9.32;2.65;;;22.70;59.10;;;;;;5046361;28;20416;-56
2023/10/24 06:23:59;;;;;;;14.25;2.90;;;22.70;59.20;;;;;;5045941;28;20518;-54
2023/10/24 06:26:26;;;;;;;13.32;2.75;;;22.70;59.20;;;;;;5046279;28;20195;-53
2023/10/24 06:28:52;;;;;;;9.90;2.50;;;22.70;59.20;;;;;;5046002;28;20178;-56
2023/10/24 06:31:19;;;;;;;10.18;2.60;;;22.70;59.30;;;;;;5045874;28;20075;-55
2023/10/24 06:33:45;;;;;;;7.65;2.55;;;22.70;59.50;;;;;;5047157;28;20078;-54
2023/10/24 06:36:12;;;;;;;10.43;2.75;;;22.70;59.50;;;;;;5046065;28;20078;-54
2023/10/24 06:38:38;;;;;;;8.43;2.67;;;22.70;59.60;;;;;;5046651;28;20467;-55
2023/10/24 06:41:08;;;;;;;11.95;2.97;;;22.70;59.70;;;;;;5046038;28;20444;-55
2023/10/24 06:43:35;;;;;;;8.63;2.75;;;22.70;59.80;;;;;;5046279;28;20084;-53
2023/10/24 06:46:05;;;;;;;10.18;2.53;;;22.70;59.90;;;;;;5046294;28;20099;-54
2023/10/24 06:48:32;;;;;;;6.72;2.65;;;22.70;59.90;;;;;;5045449;28;20198;-52
2023/10/24 06:50:59;;;;;;;7.68;2.50;;;22.70;59.90;;;;;;5063193;28;20112;-54
2023/10/24 06:53:26;;;;;;;10.25;2.65;;;22.70;60.00;;;;;;5047402;28;20166;-55
2023/10/24 06:55:59;;;;;;;8.10;2.60;;;22.60;59.90;;;;;;5045748;28;20510;-55
2023/10/24 06:58:26;;;;;;;8.32;2.60;;;22.60;60.20;;;;;;5045876;28;20079;-56
2023/10/24 07:00:52;;;;;;;10.18;3.15;;;22.60;60.10;;;;;;5047441;28;20123;-55
2023/10/24 07:03:18;;;;;;;13.40;3.40;;;22.60;60.30;;;;;;5045600;28;20087;-57
2023/10/24 07:05:52;;;;;;;10.93;3.03;;;22.60;60.40;;;;;;5045659;28;20555;-56
2023/10/24 07:08:19;;;;;;;10.48;4.00;;;22.50;60.60;;;;;;5045997;28;20105;-51
2023/10/24 07:10:46;;;;;;;10.05;3.00;;;22.50;60.60;;;;;;5045274;28;20167;-53
2023/10/24 07:13:13;;;;;;;9.93;2.70;;;22.50;60.50;;;;;;5046061;28;20081;-52
2023/10/24 07:15:42;;;;;;;6.47;2.55;;;22.50;60.60;;;;;;5051167;28;20159;-56
2023/10/24 07:18:10;;;;;;;7.65;2.50;;;22.50;60.50;;;;;;5048057;28;20080;-57
2023/10/24 07:20:37;;;;;;;9.70;2.22;;;22.50;60.50;;;;;;5049687;28;20555;-54
2023/10/24 07:23:04;;;;;;;8.93;2.47;;;22.40;60.60;;;;;;5049440;28;20116;-56
2023/10/24 07:25:32;;;;;;;8.60;2.75;;;22.40;60.60;;;;;;5049080;28;20130;-54
2023/10/24 07:27:58;;;;;;;12.02;2.80;;;22.40;60.80;;;;;;5049347;28;20120;-56
2023/10/24 07:30:25;;;;;;;9.40;2.90;;;22.30;61.00;;;;;;5049598;28;20080;-60
2023/10/24 07:32:54;;;;;;;6.63;2.17;;;22.30;61.00;;;;;;5049011;28;20533;-55
2023/10/24 07:35:21;;;;;;;12.05;3.28;;;22.30;61.20;;;;;;5050907;28;20088;-57
2023/10/24 07:37:48;;;;;;;7.45;2.42;;;22.30;61.20;;;;;;5050532;28;20091;-56
2023/10/24 07:40:15;;;;;;;9.57;2.88;;;22.20;61.30;;;;;;5045845;28;20166;-55
2023/10/24 07:42:42;;;;;;;13.00;3.47;;;22.20;61.50;;;;;;5049576;28;20083;-54
2023/10/24 07:45:09;;;;;;;7.53;2.50;;;22.30;61.80;;;;;;5049083;28;20226;-56
2023/10/24 07:47:35;;;;;;;8.15;2.53;;;22.20;62.10;;;;;;5049082;28;20197;-61
2023/10/24 07:50:02;;;;;;;7.35;2.53;;;22.20;62.00;;;;;;5056709;28;20076;-54
2023/10/24 07:52:29;;;;;;;11.55;2.30;;;22.30;62.10;;;;;;5050021;28;20111;-59
2023/10/24 07:54:56;;;;;;;7.97;2.42;;;22.10;61.90;;;;;;5050119;28;20525;-56
2023/10/24 07:57:22;;;;;;;8.15;2.60;;;22.10;62.10;;;;;;5049872;28;20127;-53
2023/10/24 07:59:49;;;;;;;12.30;2.58;;;22.10;62.00;;;;;;5050193;28;20076;-55
2023/10/24 08:02:15;;;;;;;7.32;2.47;;;22.20;62.00;;;;;;5050914;28;20217;-55
2023/10/24 08:04:42;;;;;;;12.50;2.90;;;22.20;61.80;;;;;;5049994;28;20138;-53
2023/10/24 08:07:08;;;;;;;7.93;2.53;;;22.20;62.00;;;;;;5049748;28;20088;-54
2023/10/24 08:09:34;;;;;;;8.90;2.72;;;22.10;61.90;;;;;;5049133;28;20599;-51
2023/10/24 08:12:01;;;;;;;6.18;2.40;;;22.10;61.90;;;;;;5049689;28;20129;-56
2023/10/24 08:14:28;;;;;;;12.10;2.63;;;22.10;62.20;;;;;;5050249;28;20159;-51
2023/10/24 08:16:54;;;;;;;9.60;2.20;;;22.10;62.10;;;;;;5048936;28;20087;-54
2023/10/24 08:19:20;;;;;;;4.70;2.17;;;22.00;62.10;;;;;;5048549;28;20073;-53
2023/10/24 08:21:47;;;;;;;6.97;2.78;;;22.10;62.70;;;;;;5055343;28;20091;-60
2023/10/24 08:24:14;;;;;;;7.07;2.65;;;22.00;62.50;;;;;;5048469;28;20076;-53
2023/10/24 08:26:41;;;;;;;11.63;2.65;;;22.00;62.50;;;;;;5046483;28;20188;-55
2023/10/24 08:29:07;;;;;;;7.18;2.60;;;22.00;62.70;;;;;;5048233;28;20090;-54
2023/10/24 08:31:34;;;;;;;10.15;2.65;;;22.00;62.90;;;;;;5046730;28;20156;-54
2023/10/24 08:34:01;;;;;;;6.35;2.72;;;21.90;63.20;;;;;;5047087;28;20083;-54
2023/10/24 08:36:27;;;;;;;7.10;2.97;;;22.00;63.00;;;;;;5048537;28;20549;-52
2023/10/24 08:38:54;;;;;;;7.47;2.75;;;21.90;63.40;;;;;;5055891;28;20189;-52
2023/10/24 08:41:22;;;;;;;10.73;2.22;;;21.90;63.60;;;;;;5057583;28;20202;-52
2023/10/24 08:43:49;;;;;;;5.40;2.55;;;21.90;63.90;;;;;;5047835;28;20076;-56
2023/10/24 08:46:16;;;;;;;8.02;2.78;;;21.80;64.20;;;;;;5047238;28;20490;-54
2023/10/24 08:48:44;;;;;;;10.85;2.50;;;21.80;64.60;;;;;;5047127;28;20444;-54
2023/10/24 08:51:10;;;;;;;9.32;2.38;;;21.80;64.60;;;;;;5067164;28;20095;-52
2023/10/24 08:53:37;;;;;;;5.88;2.22;;;21.70;64.60;;;;;;5047558;28;20101;-55
2023/10/24 08:56:06;;;;;;;5.40;2.42;;;21.70;64.60;;;;;;5047728;28;20077;-53
2023/10/24 08:58:37;;;;;;;10.40;2.80;;;21.60;64.70;;;;;;5046926;28;20126;-55
2023/10/24 09:01:05;;;;;;;8.85;2.47;;;21.60;65.50;;;;;;5047330;28;20084;-53
2023/10/24 09:03:32;;;;;;;7.00;2.60;;;21.60;65.20;;;;;;5047529;28;20566;-53
2023/10/24 09:06:00;;;;;;;6.25;2.20;;;21.50;65.30;;;;;;5046756;28;20079;-53
2023/10/24 09:08:26;;;;;;;9.15;2.95;;;21.50;65.40;;;;;;5047598;28;20096;-51
2023/10/24 09:10:54;;;;;;;9.00;2.38;;;21.40;65.50;;;;;;5048598;28;20072;-51
2023/10/24 09:13:21;;;;;;;7.80;2.35;;;21.40;65.90;;;;;;5046917;28;20099;-57
2023/10/24 09:16:09;;;;;;;9.13;2.53;;;21.40;66.10;;;;;;5047446;28;20146;-55
2023/10/24 09:18:37;;;;;;;9.70;2.90;;;21.40;66.10;;;;;;5046675;28;20085;-54
2023/10/24 09:21:07;;;;;;;7.78;2.78;;;21.40;66.20;;;;;;5046373;28;20082;-56
2023/10/24 09:23:37;;;;;;;8.45;2.60;;;21.40;66.30;;;;;;5047251;28;20203;-53
2023/10/24 09:26:11;;;;;;;9.95;2.70;;;21.30;66.20;;;;;;5050941;28;20568;-55
2023/10/24 09:28:38;;;;;;;5.68;2.30;;;21.30;67.50;;;;;;5046359;28;20563;-54
2023/10/24 09:31:04;;;;;;;8.98;2.65;;;21.30;67.40;;;;;;5047566;28;20080;-55
2023/10/24 09:33:33;;;;;;;7.90;2.65;;;21.20;67.40;;;;;;5047169;28;20080;-53
2023/10/24 09:35:59;;;;;;;11.45;2.45;;;21.20;67.60;;;;;;5056086;28;20563;-56
2023/10/24 09:38:26;;;;;;;9.20;2.63;;;21.10;67.20;;;;;;5047208;28;20087;-54
2023/10/24 09:40:53;;;;;;;9.50;2.83;;;21.00;67.90;;;;;;5046869;28;20143;-56
2023/10/24 09:43:30;;;;;;;10.23;3.17;;;21.10;68.30;;;;;;5045506;28;20084;-56
2023/10/24 09:45:56;;;;;;;;;;;21.10;68.20;;;;;;5047642;28;20081;-53
2023/10/24 09:48:23;;;;;;;10.43;3.08;;;21.00;68.40;;;;;;5045998;28;19980;-54
2023/10/24 09:50:52;;;;;;;23.40;3.53;;;20.90;69.10;;;;;;5056121;28;20598;-55
2023/10/24 09:53:19;;;;;;;15.02;2.70;;;20.90;69.80;;;;;;5046897;28;20076;-56
2023/10/24 09:55:50;;;;;;;13.48;3.22;;;20.90;70.00;;;;;;5046575;28;20155;-54
2023/10/24 09:58:18;;;;;;;18.08;3.40;;;20.80;70.40;;;;;;5047142;28;20563;-58
2023/10/24 10:00:45;;;;;;;12.23;3.58;;;20.80;71.00;;;;;;5046399;28;20104;-54
2023/10/24 10:03:13;;;;;;;12.55;3.03;;;20.80;71.40;;;;;;5045537;28;20095;-54
2023/10/24 10:05:41;;;;;;;11.60;3.33;;;20.70;71.90;;;;;;5046790;28;20146;-54
2023/10/24 10:08:08;;;;;;;10.07;3.20;;;20.60;72.20;;;;;;5046130;28;20092;-54
2023/10/24 10:10:37;;;;;;;12.40;3.80;;;20.70;72.70;;;;;;5046699;28;20116;-54
2023/10/24 10:13:07;;;;;;;11.85;3.63;;;20.60;72.60;;;;;;5044967;28;20448;-56
2023/10/24 10:15:49;;;;;;;13.48;3.22;;;20.70;72.70;;;;;;5046610;28;20533;-54
2023/10/24 10:18:26;;;;;;;8.85;3.80;;;20.60;72.60;;;;;;5044331;28;20569;-55
2023/10/24 10:21:25;;;;;;;17.85;7.53;;;20.70;72.70;;;;;;5045825;28;20157;-54
2023/10/24 10:24:32;;;;;;;30.48;13.50;;;20.60;72.70;;;;;;5057056;28;20708;-55
2023/10/24 10:27:39;;;;;;;27.40;11.77;;;20.60;72.90;;;;;;5043858;28;20111;-53
2023/10/24 10:30:14;;;;;;;25.23;9.20;;;20.60;73.60;;;;;;5015219;28;20520;-52
2023/10/24 10:33:15;;;;;;;26.10;8.43;;;20.60;73.20;;;;;;5056189;28;20160;-54
2023/10/24 10:35:54;;;;;;;19.67;6.95;;;20.60;73.20;;;;;;5044129;28;20169;-53
2023/10/24 10:38:46;;;;;;;16.73;6.10;;;20.60;73.10;;;;;;5043791;28;20103;-53
2023/10/24 10:41:21;;;;;;;18.80;5.40;;;20.60;73.00;;;;;;5043926;28;20202;-57
2023/10/24 10:43:55;;;;;;;20.08;5.90;;;20.50;73.10;;;;;;5043160;28;20478;-55
2023/10/24 10:46:29;;;;;;;26.83;6.07;;;20.60;72.90;;;;;;5041915;28;20112;-56
2023/10/24 10:49:00;;;;;;;17.65;6.05;;;20.50;72.10;;;;;;5044974;28;20155;-54
2023/10/24 10:51:33;;;;;;;24.13;7.10;;;20.50;72.20;;;;;;5044201;28;20081;-55
2023/10/24 10:54:21;;;;;;;24.88;7.97;;;20.60;73.10;;;;;;5042276;28;20103;-56
2023/10/24 10:56:49;;;;;;;24.27;8.07;;;20.40;72.20;;;;;;5043808;28;20100;-53
2023/10/24 10:59:34;;;;;;;29.20;8.40;;;20.40;72.20;;;;;;5042532;28;20085;-53
2023/10/24 11:02:12;;;;;;;26.60;8.07;;;20.40;72.20;;;;;;5043269;28;20146;-54
2023/10/24 11:04:39;;;;;;;26.08;10.68;;;20.50;72.00;;;;;;5045203;28;20076;-59
2023/10/24 11:07:06;;;;;;;48.72;13.98;;;20.50;71.50;;;;;;5044434;28;20101;-56
2023/10/24 11:09:37;;;;;;;39.80;13.40;;;20.30;70.60;;;;;;5044964;28;20084;-57
2023/10/24 11:12:46;;;;;;;48.63;13.23;;;20.30;72.00;;;;;;5045046;28;20138;-56
2023/10/24 11:15:16;;;;;;;34.58;12.13;;;20.30;71.60;;;;;;5041154;28;20433;-55
2023/10/24 11:17:43;;;;;;;29.75;12.07;;;20.30;72.00;;;;;;5042052;28;20142;-54
2023/10/24 11:20:10;;;;;;;40.38;12.40;;;20.20;72.10;;;;;;5041712;28;20112;-55
2023/10/24 11:22:38;;;;;;;38.58;11.73;;;20.10;72.30;;;;;;5042043;28;20111;-55
2023/10/24 11:25:11;;;;;;;34.65;11.82;;;20.20;72.40;;;;;;5042926;28;20192;-58
2023/10/24 11:27:39;;;;;;;39.55;10.80;;;20.20;72.40;;;;;;5043036;28;20119;-56
2023/10/24 11:30:07;;;;;;;39.80;11.18;;;20.20;72.80;;;;;;5042753;28;20567;-53
2023/10/24 11:32:34;;;;;;;34.83;9.73;;;20.10;73.20;;;;;;5043059;28;20116;-55
2023/10/24 11:35:03;;;;;;;32.83;8.35;;;20.10;73.20;;;;;;5042413;28;20413;-58
2023/10/24 11:37:29;;;;;;;28.88;9.57;;;20.00;73.50;;;;;;5042037;28;20096;-57
2023/10/24 11:39:59;;;;;;;29.48;9.75;;;20.00;73.90;;;;;;5042711;28;20437;-54
2023/10/24 11:42:26;;;;;;;31.40;9.50;;;20.00;74.10;;;;;;5042326;28;20189;-55
2023/10/24 11:44:53;;;;;;;30.20;9.73;;;20.00;74.10;;;;;;5042142;28;20088;-56
2023/10/24 11:47:19;;;;;;;47.58;10.73;;;20.00;73.60;;;;;;5042559;28;20150;-55
2023/10/24 11:49:49;;;;;;;39.33;10.15;;;19.90;73.10;;;;;;5052276;28;20549;-57
2023/10/24 11:52:15;;;;;;;28.10;9.18;;;19.90;73.80;;;;;;5047805;28;20080;-53
2023/10/24 11:54:42;;;;;;;29.45;10.05;;;19.90;74.20;;;;;;5044296;28;20561;-55
2023/10/24 11:57:10;;;;;;;34.50;10.55;;;19.90;73.90;;;;;;5044029;28;20095;-56
2023/10/24 11:59:38;;;;;;;29.23;10.68;;;20.00;74.10;;;;;;5043947;28;20076;-55
2023/10/24 12:02:05;;;;;;;37.63;10.02;;;19.90;73.60;;;;;;5047166;28;20622;-56
2023/10/24 12:04:32;;;;;;;34.33;9.95;;;19.80;73.60;;;;;;5057908;28;20088;-57
2023/10/24 12:07:08;;;;;;;33.55;10.38;;;19.80;73.60;;;;;;5048229;28;20096;-56
2023/10/24 12:09:37;;;;;;;26.83;9.65;;;19.80;74.50;;;;;;5047455;28;20080;-55
2023/10/24 12:12:05;;;;;;;31.55;10.75;;;19.80;74.20;;;;;;5048807;28;20162;-55
2023/10/24 12:14:32;;;;;;;28.80;9.43;;;19.80;74.30;;;;;;5047168;28;20131;-54
2023/10/24 12:16:59;;;;;;;32.22;10.25;;;19.70;74.20;;;;;;5048175;28;20119;-55
2023/10/24 12:19:25;;;;;;;30.42;10.48;;;19.70;74.30;;;;;;5047170;28;20504;-52
2023/10/24 12:21:53;;;;;;;38.65;9.93;;;19.60;74.90;;;;;;5048183;28;20137;-53
2023/10/24 12:24:20;;;;;;;34.10;9.90;;;19.70;75.50;;;;;;5047406;28;20085;-56
2023/10/24 12:26:46;;;;;;;35.20;9.55;;;19.70;75.20;;;;;;5047941;28;20157;-56
2023/10/24 12:29:13;;;;;;;33.65;10.07;;;19.70;74.70;;;;;;5067308;28;20076;-57
2023/10/24 12:31:39;;;;;;;29.83;9.70;;;19.70;74.00;;;;;;5047054;28;21226;-55
2023/10/24 12:34:08;;;;;;;36.08;9.55;;;19.70;74.00;;;;;;5047911;28;20076;-54
2023/10/24 12:36:35;;;;;;;32.33;10.15;;;19.60;73.80;;;;;;5047497;28;20121;-55
2023/10/24 12:39:01;;;;;;;38.47;10.20;;;19.70;73.80;;;;;;5046419;28;20081;-55
2023/10/24 12:41:28;;;;;;;30.48;9.93;;;19.70;73.70;;;;;;5047911;28;20103;-57
2023/10/24 12:43:55;;;;;;;34.53;10.25;;;19.70;73.80;;;;;;5046231;28;20080;-55
2023/10/24 12:46:21;;;;;;;40.38;10.60;;;19.50;73.90;;;;;;5047861;28;20614;-57